Time;durP1;ratioP1;P1;durP2;ratioP2;P2;SDS_P1;SDS_P2;PMS_P1;PMS_P2;Temp;Humidity;BMP_temperature;BMP_pressure;BME280_temperature;BME280_humidity;BME280_pressure;Samples;Min_cycle;Max_cycle;Signal;HPM_P1;HPM_P2
2022/08/29 02:46:23;;;;;;;3.10;1.70;;;16.50;99.90;;;;;;5874774;23;93992;31
2022/08/29 02:48:48;;;;;;;4.82;1.80;;;16.50;99.90;;;;;;4733538;29;92034;-76
2022/08/29 02:51:24;;;;;;;3.70;1.70;;;16.50;99.90;;;;;;5003288;28;82056;-75
2022/08/29 02:53:50;;;;;;;4.45;1.92;;;16.60;99.90;;;;;;4997802;27;81170;-75
2022/08/29 02:56:16;;;;;;;4.13;2.10;;;16.60;99.90;;;;;;4976152;28;82419;-74
2022/08/29 02:58:42;;;;;;;4.57;2.03;;;16.60;99.90;;;;;;4960834;28;82089;-76
2022/08/29 03:01:10;;;;;;;3.67;2.03;;;16.60;99.90;;;;;;4976850;28;82687;-76
2022/08/29 03:03:36;;;;;;;4.47;1.88;;;16.60;99.90;;;;;;4981624;28;81461;-76
2022/08/29 03:06:02;;;;;;;3.60;1.92;;;16.60;99.90;;;;;;4987018;28;81779;-75
2022/08/29 03:08:28;;;;;;;5.22;2.08;;;16.50;99.90;;;;;;4988501;28;82462;-75
2022/08/29 03:10:54;;;;;;;3.47;1.70;;;16.50;99.90;;;;;;4982437;28;82915;-74
2022/08/29 03:13:20;;;;;;;3.05;1.55;;;16.50;99.90;;;;;;4990834;28;81383;-74
2022/08/29 03:15:46;;;;;;;6.07;1.95;;;16.50;99.90;;;;;;5002605;28;81481;-76
2022/08/29 03:18:13;;;;;;;3.88;1.70;;;16.50;99.90;;;;;;4976577;28;82198;-75
2022/08/29 03:20:40;;;;;;;4.18;2.15;;;16.40;99.90;;;;;;4966177;28;81543;-75
2022/08/29 03:23:07;;;;;;;4.25;2.10;;;16.40;99.90;;;;;;4991943;28;81622;-76
2022/08/29 03:25:33;;;;;;;3.67;1.75;;;16.40;99.90;;;;;;4965770;28;81429;-74
2022/08/29 03:27:59;;;;;;;3.47;1.85;;;16.30;99.90;;;;;;4980491;28;81754;-75
2022/08/29 03:30:27;;;;;;;5.05;1.80;;;16.30;99.90;;;;;;4982711;28;81944;-75
2022/08/29 03:32:53;;;;;;;3.25;1.45;;;16.30;99.90;;;;;;4991090;28;82805;-75
2022/08/29 03:35:21;;;;;;;3.80;1.55;;;16.30;99.90;;;;;;4962256;28;82250;-75
2022/08/29 03:37:47;;;;;;;4.88;1.70;;;16.20;99.90;;;;;;4965797;28;82219;-74
2022/08/29 03:40:14;;;;;;;4.05;1.60;;;16.20;99.90;;;;;;4962828;28;82391;-75
2022/08/29 03:42:41;;;;;;;5.78;1.55;;;16.20;99.90;;;;;;4977793;28;81259;-75
2022/08/29 03:45:10;;;;;;;5.60;1.65;;;16.20;99.90;;;;;;4985361;28;81932;-75
2022/08/29 03:47:36;;;;;;;2.45;1.35;;;16.10;99.90;;;;;;4977270;28;81714;-75
2022/08/29 03:50:03;;;;;;;2.13;0.90;;;16.20;99.90;;;;;;4975817;28;82384;-75
2022/08/29 03:52:28;;;;;;;3.45;1.60;;;16.20;99.90;;;;;;4990015;28;81330;-76
2022/08/29 03:54:54;;;;;;;2.85;1.30;;;16.20;99.90;;;;;;4966476;28;81628;-75
2022/08/29 03:57:20;;;;;;;2.80;1.50;;;16.10;99.90;;;;;;4961513;28;81812;-77
2022/08/29 03:59:46;;;;;;;3.42;1.70;;;16.20;99.90;;;;;;4975766;28;81999;-77
2022/08/29 04:02:12;;;;;;;2.67;1.05;;;16.20;99.90;;;;;;4962900;28;81462;-75
2022/08/29 04:07:22;;;;;;;2.35;1.02;;;16.20;99.90;;;;;;4962241;28;81785;-75
2022/08/29 04:09:48;;;;;;;2.10;1.10;;;16.20;99.90;;;;;;4960429;28;82032;-75
2022/08/29 04:12:14;;;;;;;6.15;1.25;;;16.10;99.90;;;;;;4968262;28;82449;-78
2022/08/29 04:14:40;;;;;;;4.57;1.02;;;16.10;99.90;;;;;;4973725;28;81455;-76
2022/08/29 04:17:09;;;;;;;3.72;1.02;;;16.10;99.90;;;;;;4969525;28;81780;-77
2022/08/29 04:19:35;;;;;;;2.10;1.00;;;16.10;99.90;;;;;;4955972;28;82267;-75
2022/08/29 04:22:02;;;;;;;3.78;1.40;;;16.00;99.90;;;;;;4965426;28;81589;-77
2022/08/29 04:24:32;;;;;;;4.22;1.40;;;16.00;99.90;;;;;;4966832;28;82289;-76
2022/08/29 04:26:58;;;;;;;4.57;0.80;;;16.00;99.90;;;;;;4963398;28;82063;-76
2022/08/29 04:29:24;;;;;;;2.58;0.90;;;16.00;99.90;;;;;;4970791;28;81578;-77
2022/08/29 04:31:50;;;;;;;4.68;1.42;;;16.00;99.90;;;;;;4967267;28;83367;-77
2022/08/29 04:34:17;;;;;;;2.70;1.10;;;15.90;99.90;;;;;;4968831;28;82049;-76
2022/08/29 04:36:44;;;;;;;3.72;1.42;;;16.00;99.90;;;;;;4962261;28;81742;-77
2022/08/29 04:39:11;;;;;;;2.83;1.20;;;15.90;99.90;;;;;;4962694;28;82292;-77
2022/08/29 04:41:37;;;;;;;4.35;1.85;;;15.90;99.90;;;;;;4968584;28;81552;-77
2022/08/29 04:44:04;;;;;;;3.92;1.80;;;16.00;99.90;;;;;;4956320;28;82350;-78
2022/08/29 04:46:30;;;;;;;9.95;2.80;;;16.20;99.90;;;;;;4962460;28;82078;-77
2022/08/29 04:48:56;;;;;;;3.90;1.80;;;16.20;99.90;;;;;;4965668;28;81613;-78
2022/08/29 04:51:22;;;;;;;3.67;1.83;;;16.10;99.90;;;;;;4971321;28;81579;-78
2022/08/29 04:53:50;;;;;;;3.05;1.30;;;16.00;99.90;;;;;;4967911;28;82172;-77
2022/08/29 04:56:16;;;;;;;2.35;1.30;;;15.90;99.90;;;;;;4963209;28;82131;-76
2022/08/29 04:58:43;;;;;;;5.03;1.20;;;15.90;99.90;;;;;;4963415;28;82108;-76
2022/08/29 05:01:16;;;;;;;3.50;1.80;;;16.00;99.90;;;;;;4962838;28;81466;-77
2022/08/29 05:03:42;;;;;;;4.75;1.60;;;16.00;99.90;;;;;;4977630;28;81723;-77
2022/08/29 05:06:11;;;;;;;5.85;1.50;;;16.00;99.90;;;;;;4966560;28;82892;-76
2022/08/29 05:08:39;;;;;;;10.93;2.13;;;16.50;99.90;;;;;;4963224;28;82300;-78
2022/08/29 05:11:08;;;;;;;3.40;1.58;;;17.10;99.90;;;;;;4957464;28;82081;-79
2022/08/29 05:13:33;;;;;;;5.72;2.13;;;17.40;99.90;;;;;;4970463;28;82266;-78
2022/08/29 05:16:03;;;;;;;5.57;2.25;;;17.60;99.90;;;;;;4965777;28;81949;-76
2022/08/29 05:18:29;;;;;;;4.55;2.10;;;17.60;99.90;;;;;;4964442;28;81597;-78
2022/08/29 05:20:54;;;;;;;7.57;2.33;;;17.70;99.90;;;;;;4965284;28;82317;-78
2022/08/29 05:23:20;;;;;;;11.60;2.20;;;18.00;99.90;;;;;;4971157;28;81287;-79
2022/08/29 05:25:55;;;;;;;9.73;2.97;;;18.40;99.90;;;;;;4958414;28;81823;-79
2022/08/29 05:28:21;;;;;;;6.60;2.53;;;19.10;99.90;;;;;;4957645;28;82153;-75
2022/08/29 05:30:47;;;;;;;5.78;2.00;;;19.80;99.90;;;;;;4953844;28;82174;-78
2022/08/29 05:33:12;;;;;;;4.43;1.90;;;20.30;99.90;;;;;;4959643;28;81438;-77
2022/08/29 05:35:38;;;;;;;5.32;2.53;;;20.60;97.80;;;;;;4956060;28;81963;-76
2022/08/29 05:38:04;;;;;;;4.90;1.95;;;21.10;97.80;;;;;;4951211;28;81534;-77
2022/08/29 05:40:30;;;;;;;4.20;2.33;;;22.00;93.60;;;;;;4962084;28;81647;-77
2022/08/29 05:42:56;;;;;;;7.07;2.00;;;22.30;90.00;;;;;;4959490;28;81469;-81
2022/08/29 05:45:21;;;;;;;15.23;2.53;;;21.70;91.90;;;;;;4958230;28;81643;-84
2022/08/29 05:47:47;;;;;;;10.32;2.63;;;22.00;92.00;;;;;;4956395;28;81596;-79
2022/08/29 05:50:15;;;;;;;5.72;2.33;;;22.50;90.30;;;;;;4956977;28;81644;-81
2022/08/29 05:52:42;;;;;;;6.35;1.98;;;23.00;86.70;;;;;;4963917;28;82130;-81
2022/08/29 05:55:08;;;;;;;6.40;2.50;;;22.90;85.80;;;;;;4962394;28;82467;-80
2022/08/29 05:57:35;;;;;;;12.13;3.25;;;22.60;85.10;;;;;;4966620;28;81670;-81
2022/08/29 06:00:00;;;;;;;10.15;3.50;;;22.40;87.00;;;;;;4952284;28;81519;-80
2022/08/29 06:02:26;;;;;;;7.00;2.78;;;21.90;88.10;;;;;;4967288;28;81646;-80
2022/08/29 06:04:52;;;;;;;13.32;3.22;;;21.00;91.70;;;;;;4962818;28;83704;-78
2022/08/29 06:07:18;;;;;;;6.43;2.65;;;21.60;91.30;;;;;;4964689;28;81602;-80
2022/08/29 06:09:44;;;;;;;4.35;2.45;;;22.50;88.30;;;;;;4967773;28;81549;-79
2022/08/29 06:12:12;;;;;;;3.72;1.95;;;23.10;84.70;;;;;;4963475;28;81885;-77
2022/08/29 06:14:38;;;;;;;5.25;3.03;;;24.50;79.70;;;;;;4957838;28;82479;-76
2022/08/29 06:17:06;;;;;;;3.30;2.22;;;24.80;80.00;;;;;;4968068;28;81797;-76
2022/08/29 06:19:33;;;;;;;5.10;2.28;;;25.50;75.60;;;;;;4963339;28;81521;-76
2022/08/29 06:22:04;;;;;;;3.95;1.70;;;25.40;73.50;;;;;;4964208;28;82055;-77
2022/08/29 06:24:31;;;;;;;4.70;2.17;;;25.80;75.10;;;;;;4959860;28;81494;-76
2022/08/29 06:26:57;;;;;;;5.22;2.15;;;27.00;70.20;;;;;;4956230;28;82463;-78
2022/08/29 06:29:23;;;;;;;4.13;2.42;;;27.30;67.20;;;;;;4955620;28;82109;-75
2022/08/29 06:31:49;;;;;;;5.20;2.25;;;28.00;68.40;;;;;;4959328;28;81344;-75
2022/08/29 06:34:15;;;;;;;5.57;2.35;;;28.40;65.10;;;;;;4962779;28;82500;-76
2022/08/29 06:36:40;;;;;;;2.70;1.85;;;29.50;59.90;;;;;;4957121;28;81799;-78
2022/08/29 06:39:08;;;;;;;3.85;2.38;;;28.10;62.70;;;;;;4957383;28;81397;-75
2022/08/29 06:41:36;;;;;;;4.53;3.05;;;24.90;71.40;;;;;;4973239;28;81417;-76
2022/08/29 06:44:02;;;;;;;4.18;2.50;;;23.90;76.00;;;;;;4959079;28;81860;-76
2022/08/29 06:46:31;;;;;;;4.95;2.55;;;24.20;76.40;;;;;;4963231;28;82221;-77
2022/08/29 06:48:59;;;;;;;3.63;2.22;;;25.10;73.50;;;;;;4957336;28;81352;-75
2022/08/29 06:51:25;;;;;;;5.13;2.35;;;26.30;72.00;;;;;;4954380;28;81431;-75
2022/08/29 06:53:52;;;;;;;5.63;2.75;;;27.20;67.80;;;;;;4955721;28;81693;-73
2022/08/29 06:56:19;;;;;;;3.63;2.20;;;28.40;66.00;;;;;;4962924;28;83087;-76
2022/08/29 06:58:45;;;;;;;3.67;2.38;;;30.80;59.50;;;;;;4959489;28;81978;-76
2022/08/29 07:01:14;;;;;;;5.88;2.40;;;32.30;55.20;;;;;;4952642;28;82206;-76
2022/08/29 07:03:40;;;;;;;4.55;2.63;;;32.30;55.70;;;;;;4958515;28;82583;-75
2022/08/29 07:06:08;;;;;;;3.33;1.90;;;31.80;56.60;;;;;;4952470;28;83283;-76
2022/08/29 07:08:34;;;;;;;3.20;2.25;;;33.50;52.00;;;;;;4953745;28;83419;-76
2022/08/29 07:11:00;;;;;;;4.32;2.13;;;34.20;51.20;;;;;;4960679;28;81890;-74
2022/08/29 07:13:26;;;;;;;4.05;2.17;;;32.30;53.30;;;;;;4956253;28;82763;-76
2022/08/29 07:15:52;;;;;;;4.45;2.38;;;33.70;51.70;;;;;;4959653;28;81852;-75
2022/08/29 07:18:18;;;;;;;5.95;2.47;;;34.70;49.60;;;;;;4956519;28;82650;-77
2022/08/29 07:20:44;;;;;;;3.72;2.40;;;34.80;48.60;;;;;;4960355;28;82322;-76
2022/08/29 07:23:10;;;;;;;5.20;2.63;;;36.30;47.40;;;;;;4962679;28;81909;-75
2022/08/29 07:25:36;;;;;;;3.13;2.25;;;37.00;44.30;;;;;;4972669;28;82671;-75
2022/08/29 07:28:03;;;;;;;6.28;2.38;;;37.70;43.50;;;;;;4959014;28;82551;-74
2022/08/29 07:30:29;;;;;;;3.72;2.67;;;39.50;42.10;;;;;;4956725;28;83075;-75
2022/08/29 07:32:55;;;;;;;4.30;3.65;;;39.80;40.80;;;;;;4951327;28;82022;-74
2022/08/29 07:35:21;;;;;;;4.07;2.95;;;36.90;44.40;;;;;;4956036;28;81909;-75
2022/08/29 07:37:47;;;;;;;4.90;2.70;;;36.40;45.80;;;;;;4954774;28;82071;-74
2022/08/29 07:40:16;;;;;;;7.22;2.47;;;37.90;43.70;;;;;;4954113;28;81968;-76
2022/08/29 07:42:42;;;;;;;4.80;4.05;;;39.50;41.30;;;;;;4957055;28;81970;-76
2022/08/29 07:45:10;;;;;;;4.55;2.67;;;41.00;39.40;;;;;;4957437;28;82630;-76
2022/08/29 07:47:36;;;;;;;4.30;3.08;;;40.90;38.60;;;;;;4971223;28;80976;-76
2022/08/29 07:50:05;;;;;;;4.32;3.15;;;39.20;41.20;;;;;;4959475;28;81789;-75
2022/08/29 07:52:31;;;;;;;3.45;2.67;;;39.00;42.00;;;;;;4960110;28;82144;-74
2022/08/29 07:54:57;;;;;;;4.82;3.25;;;40.70;39.40;;;;;;4958718;28;84270;-76
2022/08/29 07:57:23;;;;;;;4.75;3.22;;;41.50;38.70;;;;;;4960542;28;82020;-76
2022/08/29 07:59:49;;;;;;;4.35;3.08;;;42.50;37.00;;;;;;4963425;28;81933;-76
2022/08/29 08:02:15;;;;;;;3.47;2.63;;;41.00;38.30;;;;;;4963269;28;82081;-75
2022/08/29 08:04:41;;;;;;;5.75;2.97;;;41.10;39.50;;;;;;4958559;28;82277;-76
2022/08/29 08:07:08;;;;;;;5.35;3.30;;;43.00;38.20;;;;;;4962012;28;81897;-75
2022/08/29 08:09:34;;;;;;;4.50;3.25;;;44.30;37.30;;;;;;4955718;28;82401;-76
2022/08/29 08:12:00;;;;;;;3.88;3.20;;;45.70;34.70;;;;;;4964825;28;80990;-76
2022/08/29 08:14:26;;;;;;;5.18;3.17;;;45.30;34.80;;;;;;4965085;28;82530;-75
2022/08/29 08:16:51;;;;;;;4.07;3.50;;;45.40;35.00;;;;;;4966006;28;81798;-76
2022/08/29 08:19:17;;;;;;;4.90;3.70;;;45.60;33.80;;;;;;4960233;28;82830;-75
2022/08/29 08:21:43;;;;;;;5.82;2.88;;;44.90;35.00;;;;;;4952002;28;82431;-73
2022/08/29 08:24:09;;;;;;;3.78;3.30;;;45.10;34.60;;;;;;4957816;28;82994;-75
2022/08/29 08:26:35;;;;;;;5.05;3.75;;;45.90;34.90;;;;;;4967388;28;82076;-76
2022/08/29 08:29:02;;;;;;;4.00;3.35;;;46.00;34.40;;;;;;4953214;28;81932;-75
2022/08/29 08:31:27;;;;;;;4.35;3.65;;;45.40;34.10;;;;;;4946905;28;83076;-75
2022/08/29 08:33:53;;;;;;;4.32;3.90;;;45.90;34.10;;;;;;4957258;28;82062;-75
2022/08/29 08:36:29;;;;;;;4.68;4.25;;;46.00;34.30;;;;;;4955254;28;81951;-74
2022/08/29 08:38:57;;;;;;;5.68;5.13;;;45.80;34.50;;;;;;4959835;28;82408;-75
2022/08/29 08:41:32;;;;;;;5.10;4.60;;;45.50;35.00;;;;;;4961139;28;82721;-75
2022/08/29 08:44:06;;;;;;;5.60;5.07;;;46.30;34.80;;;;;;4961598;28;83393;-75
2022/08/29 08:46:42;;;;;;;6.40;5.35;;;46.20;33.80;;;;;;4949690;28;83001;-76
2022/08/29 08:49:15;;;;;;;6.03;4.68;;;46.80;33.40;;;;;;4972578;28;81672;-76
2022/08/29 08:51:46;;;;;;;5.90;4.63;;;47.10;33.50;;;;;;4961939;28;82263;-75
2022/08/29 08:54:23;;;;;;;5.53;5.00;;;47.90;33.10;;;;;;4957646;28;83171;-75
2022/08/29 08:57:03;;;;;;;7.30;5.15;;;47.80;32.60;;;;;;4957271;28;82330;-76
2022/08/29 08:59:55;;;;;;;8.13;7.43;;;47.20;32.80;;;;;;4958714;28;82351;-75
2022/08/29 09:03:01;;;;;;;6.53;5.63;;;45.60;34.80;;;;;;4963114;28;81904;-75
2022/08/29 09:05:29;;;;;;;6.43;5.82;;;45.70;35.50;;;;;;4960796;28;82498;-75
2022/08/29 09:08:04;;;;;;;7.90;5.15;;;46.40;34.00;;;;;;4959658;28;82452;-76
2022/08/29 09:10:45;;;;;;;5.85;5.38;;;46.20;34.80;;;;;;4950512;28;83323;-75
2022/08/29 09:13:23;;;;;;;;;;;46.10;35.00;;;;;;4957226;28;82550;-75
2022/08/29 09:15:52;;;;;;;7.45;6.68;;;47.90;34.20;;;;;;4966015;28;82972;-76
2022/08/29 09:18:35;;;;;;;6.40;5.80;;;48.50;33.20;;;;;;4956491;28;81996;-75
2022/08/29 09:21:03;;;;;;;8.00;6.40;;;47.80;32.70;;;;;;4956751;28;81865;-75
2022/08/29 09:23:41;;;;;;;7.32;6.70;;;47.50;33.50;;;;;;4958042;28;83369;-76
2022/08/29 09:26:07;;;;;;;7.65;7.00;;;47.10;33.70;;;;;;4953396;28;82139;-75
2022/08/29 09:28:33;;;;;;;7.38;6.68;;;47.40;33.20;;;;;;4958452;28;81759;-76
2022/08/29 09:31:33;;;;;;;8.18;7.38;;;48.00;33.10;;;;;;4954458;28;82255;-77
2022/08/29 09:34:04;;;;;;;6.28;5.75;;;48.00;32.80;;;;;;4956567;28;82949;-75
2022/08/29 09:36:48;;;;;;;6.80;6.20;;;48.50;32.30;;;;;;4961366;28;82743;-76
2022/08/29 09:39:28;;;;;;;9.27;7.65;;;49.30;32.20;;;;;;4957391;28;82745;-76
2022/08/29 09:42:12;;;;;;;;;;;48.10;33.40;;;;;;4955710;28;82109;-76
2022/08/29 09:44:40;;;;;;;7.35;6.75;;;46.60;33.80;;;;;;4959608;28;81888;-74
2022/08/29 09:47:19;;;;;;;6.65;6.15;;;46.80;34.00;;;;;;4958750;28;82010;-76
2022/08/29 09:50:23;;;;;;;7.32;6.53;;;47.10;33.70;;;;;;4960680;28;82325;-77
2022/08/29 09:52:57;;;;;;;9.82;8.68;;;45.50;35.00;;;;;;4959067;28;81837;-76
2022/08/29 09:55:37;;;;;;;8.65;7.00;;;45.30;34.80;;;;;;4956905;28;82365;-76
2022/08/29 09:58:09;;;;;;;6.57;5.95;;;46.00;34.60;;;;;;4955964;28;82020;-76
2022/08/29 10:00:42;;;;;;;6.45;5.95;;;45.80;34.80;;;;;;4957151;28;82295;-76
2022/08/29 10:03:20;;;;;;;5.95;5.38;;;45.90;34.90;;;;;;4953473;28;82866;-80
2022/08/29 10:05:46;;;;;;;6.53;5.55;;;44.10;35.30;;;;;;4960846;28;82105;-82
2022/08/29 10:08:26;;;;;;;6.97;6.38;;;45.10;35.60;;;;;;4951168;28;82160;-79
2022/08/29 10:10:56;;;;;;;7.22;5.97;;;44.90;34.70;;;;;;4954404;28;81953;-81
2022/08/29 10:13:32;;;;;;;6.32;5.80;;;45.80;33.90;;;;;;4948246;28;81893;-83
2022/08/29 10:16:25;;;;;;;8.05;5.40;;;46.30;33.90;;;;;;4947875;28;82784;-84
2022/08/29 10:19:04;;;;;;;6.07;5.47;;;46.30;33.30;;;;;;4958505;28;83476;-83
2022/08/29 10:21:55;;;;;;;5.78;4.78;;;44.70;33.60;;;;;;4961193;28;81498;-83
2022/08/29 10:24:53;;;;;;;5.80;5.35;;;41.00;37.50;;;;;;4965534;28;82812;-84
2022/08/29 10:27:24;;;;;;;6.53;4.20;;;37.70;40.90;;;;;;4964775;28;82366;-79
2022/08/29 10:30:05;;;;;;;6.45;5.85;;;36.00;43.50;;;;;;4966496;28;83461;-80
2022/08/29 10:32:45;;;;;;;4.07;3.60;;;35.20;45.00;;;;;;4985123;28;84080;-81
2022/08/29 10:35:29;;;;;;;3.85;3.45;;;33.00;49.00;;;;;;4963493;28;81889;-78
2022/08/29 10:38:16;;;;;;;3.60;2.65;;;31.30;53.00;;;;;;4971186;28;81901;-79
2022/08/29 10:40:55;;;;;;;6.32;2.97;;;30.40;53.50;;;;;;4982370;28;82126;-79
2022/08/29 10:43:29;;;;;;;3.83;2.47;;;29.80;56.30;;;;;;4973652;28;82306;-79
2022/08/29 10:46:19;;;;;;;5.22;2.60;;;29.20;56.90;;;;;;4965800;28;81203;-79
2022/08/29 10:49:11;;;;;;;3.90;2.35;;;28.90;58.20;;;;;;4966584;28;81256;-77
2022/08/29 10:51:54;;;;;;;3.20;2.22;;;28.80;59.50;;;;;;4972458;28;83477;-85
2022/08/29 10:55:00;;;;;;;3.92;2.47;;;28.80;58.10;;;;;;4981548;28;81909;-78
2022/08/29 10:58:04;;;;;;;5.10;1.92;;;28.40;59.80;;;;;;4953560;28;82538;-82
2022/08/29 11:00:54;;;;;;;3.70;2.00;;;28.50;58.80;;;;;;4974396;28;81887;-85
2022/08/29 11:03:25;;;;;;;3.88;2.33;;;28.80;60.30;;;;;;4955060;28;82423;-83
2022/08/29 11:06:02;;;;;;;3.70;2.33;;;28.60;60.00;;;;;;4955259;28;81971;-84
2022/08/29 11:08:33;;;;;;;4.30;2.63;;;28.20;61.00;;;;;;4958834;28;81889;-86
2022/08/29 11:10:59;;;;;;;3.53;1.80;;;28.40;63.20;;;;;;4945846;28;83195;-82
2022/08/29 11:13:29;;;;;;;3.63;2.22;;;28.30;60.70;;;;;;4962773;28;82432;-85
2022/08/29 11:16:17;;;;;;;3.17;2.03;;;27.90;61.10;;;;;;4958964;28;82306;-84
2022/08/29 11:19:00;;;;;;;3.65;2.17;;;28.00;62.60;;;;;;4961269;28;81957;-85
2022/08/29 11:21:33;;;;;;;3.40;2.22;;;28.00;63.10;;;;;;4964718;28;82040;-86
2022/08/29 11:24:02;;;;;;;4.57;2.15;;;27.90;62.60;;;;;;4964460;28;83283;-84
2022/08/29 11:26:43;;;;;;;2.78;1.70;;;27.70;63.20;;;;;;4961937;28;83308;-85
2022/08/29 11:29:18;;;;;;;;;;;27.60;62.40;;;;;;4964420;28;82004;-84
2022/08/29 11:31:53;;;;;;;;;;;27.60;62.00;;;;;;4965318;28;82503;-81
2022/08/29 11:34:28;;;;;;;3.05;2.10;;;27.60;62.60;;;;;;4962924;28;81781;-85
2022/08/29 11:37:44;;;;;;;4.25;2.05;;;28.00;63.00;;;;;;4964809;28;82055;-85
2022/08/29 11:40:49;;;;;;;3.72;1.70;;;27.90;65.00;;;;;;4951790;28;81298;-83
2022/08/29 11:43:24;;;;;;;3.00;1.92;;;28.30;63.50;;;;;;4969719;28;81360;-85
2022/08/29 11:45:55;;;;;;;;;;;28.50;61.90;;;;;;4969383;28;81777;-82
2022/08/29 11:48:33;;;;;;;3.10;1.80;;;28.40;61.50;;;;;;4955627;28;83101;-80
2022/08/29 11:51:18;;;;;;;3.55;2.17;;;28.10;62.80;;;;;;4958177;28;82913;-85
2022/08/29 11:53:46;;;;;;;3.45;2.03;;;28.30;63.00;;;;;;4968601;28;82077;-84
2022/08/29 11:56:12;;;;;;;3.60;1.88;;;28.10;61.40;;;;;;4960550;28;81566;-83
2022/08/29 11:58:41;;;;;;;2.40;1.80;;;28.10;62.70;;;;;;4967013;28;81959;-84
2022/08/29 12:01:36;;;;;;;4.00;1.77;;;28.00;61.10;;;;;;4962271;28;81284;-79
2022/08/29 12:04:10;;;;;;;5.97;1.83;;;27.60;61.60;;;;;;4965915;28;81582;-81
2022/08/29 12:06:38;;;;;;;3.97;1.33;;;27.50;64.70;;;;;;4966153;28;82122;-82
2022/08/29 12:09:22;;;;;;;3.70;2.60;;;27.80;63.50;;;;;;4967632;28;81962;-83
2022/08/29 12:11:57;;;;;;;2.70;2.05;;;28.00;61.90;;;;;;4961682;28;82493;-84
2022/08/29 12:14:45;;;;;;;3.85;1.98;;;27.80;64.00;;;;;;4961382;28;81856;-78
2022/08/29 12:17:33;;;;;;;3.10;1.58;;;27.80;62.70;;;;;;4978547;28;83308;-78
2022/08/29 12:19:59;;;;;;;2.63;1.80;;;27.60;65.10;;;;;;4962573;28;83405;-82
2022/08/29 12:22:53;;;;;;;3.00;2.00;;;27.80;61.50;;;;;;4964000;28;81176;-85
2022/08/29 12:25:34;;;;;;;3.75;1.77;;;27.80;64.00;;;;;;4964907;28;82156;-82
2022/08/29 12:28:01;;;;;;;2.80;1.60;;;27.90;63.40;;;;;;4964322;28;82396;-85
2022/08/29 12:30:39;;;;;;;4.18;1.40;;;28.00;65.10;;;;;;4961366;28;82417;-83
2022/08/29 12:33:35;;;;;;;2.60;1.77;;;27.90;61.60;;;;;;4964405;28;84369;-82
2022/08/29 12:36:24;;;;;;;2.97;1.60;;;27.60;61.80;;;;;;4956762;28;81196;-84
2022/08/29 12:39:16;;;;;;;;;;;27.50;62.70;;;;;;4966610;28;82058;-85
2022/08/29 12:42:09;;;;;;;3.78;2.60;;;27.60;66.10;;;;;;4946094;28;81735;-86
2022/08/29 12:44:42;;;;;;;4.80;1.95;;;27.60;62.30;;;;;;4966540;28;82637;-87
2022/08/29 12:47:27;;;;;;;3.47;2.13;;;27.60;62.30;;;;;;4964926;28;82323;-85
2022/08/29 12:49:59;;;;;;;2.40;1.58;;;27.80;63.40;;;;;;4964457;28;82696;-85
2022/08/29 12:52:30;;;;;;;2.70;1.73;;;27.80;62.40;;;;;;4966491;28;81652;-80
2022/08/29 12:55:11;;;;;;;3.03;1.60;;;27.80;64.30;;;;;;4957527;28;81208;-82
2022/08/29 12:57:37;;;;;;;3.50;2.03;;;27.90;62.00;;;;;;4965963;28;81630;-83
2022/08/29 13:00:11;;;;;;;2.50;1.70;;;27.90;64.60;;;;;;4965939;28;82198;-82
2022/08/29 13:02:37;;;;;;;4.75;1.95;;;27.90;63.50;;;;;;4960239;28;83964;-85
2022/08/29 13:05:21;;;;;;;2.92;1.40;;;27.90;65.10;;;;;;4965040;28;82210;-82
2022/08/29 13:07:57;;;;;;;2.58;1.42;;;28.10;63.60;;;;;;4966795;28;81594;-85
2022/08/29 13:10:23;;;;;;;3.28;1.65;;;28.00;64.60;;;;;;4958911;28;83134;-84
2022/08/29 13:12:49;;;;;;;2.20;1.55;;;27.80;64.10;;;;;;4958264;28;83129;-82
2022/08/29 13:15:20;;;;;;;3.10;1.73;;;27.80;64.00;;;;;;4958825;28;81936;-85
2022/08/29 13:17:49;;;;;;;3.65;2.55;;;27.80;63.10;;;;;;4959816;28;81796;-79
2022/08/29 13:20:37;;;;;;;2.20;1.50;;;27.90;63.10;;;;;;4956785;28;82814;-84
2022/08/29 13:23:11;;;;;;;4.30;2.00;;;28.00;63.10;;;;;;4966761;28;81435;-86
2022/08/29 13:25:46;;;;;;;2.90;1.67;;;27.70;64.10;;;;;;4965739;28;81809;-86
2022/08/29 13:28:21;;;;;;;4.03;1.45;;;27.70;63.30;;;;;;4960062;28;81263;-87
2022/08/29 13:31:22;;;;;;;;;;;27.80;64.30;;;;;;4955421;28;82209;-83
2022/08/29 13:33:48;;;;;;;4.13;2.55;;;27.70;62.70;;;;;;4936650;28;81670;-84
2022/08/29 13:36:26;;;;;;;4.50;2.03;;;27.70;61.90;;;;;;4954155;28;82869;-83
2022/08/29 13:39:16;;;;;;;3.42;1.90;;;27.50;63.60;;;;;;4952954;28;81879;-84
2022/08/29 13:41:56;;;;;;;5.53;2.40;;;27.60;63.90;;;;;;4960656;28;82204;-82
2022/08/29 13:44:26;;;;;;;4.80;3.38;;;27.70;63.80;;;;;;4959951;28;82005;-84
2022/08/29 13:46:56;;;;;;;4.35;1.52;;;27.60;63.70;;;;;;4963372;28;82062;-85
2022/08/29 13:49:30;;;;;;;3.00;1.75;;;27.70;62.70;;;;;;4957066;28;82169;-85
2022/08/29 13:51:56;;;;;;;4.00;3.10;;;27.50;64.10;;;;;;4960191;28;83409;-84
2022/08/29 13:54:22;;;;;;;5.07;2.60;;;27.50;62.60;;;;;;4954078;28;82191;-85
2022/08/29 13:56:55;;;;;;;3.10;1.70;;;27.70;63.10;;;;;;4964767;28;81951;-85
2022/08/29 13:59:24;;;;;;;3.80;2.17;;;27.80;62.40;;;;;;4961775;28;81819;-86
2022/08/29 14:01:51;;;;;;;3.95;1.73;;;27.80;61.90;;;;;;4964824;28;82450;-83
2022/08/29 14:04:17;;;;;;;3.08;1.70;;;27.60;60.20;;;;;;4964188;28;83784;-83
2022/08/29 14:06:44;;;;;;;3.80;1.67;;;27.60;60.20;;;;;;4961674;28;81956;-85
2022/08/29 14:09:19;;;;;;;3.58;2.00;;;27.60;62.60;;;;;;4960556;28;81709;-84
2022/08/29 14:11:45;;;;;;;4.00;1.77;;;27.70;63.20;;;;;;4961077;28;82046;-86
2022/08/29 14:14:10;;;;;;;3.08;1.85;;;27.70;63.00;;;;;;4963859;28;81982;-86
2022/08/29 14:16:36;;;;;;;3.30;1.83;;;27.40;62.40;;;;;;4961573;28;81495;-84
2022/08/29 14:19:03;;;;;;;3.70;2.00;;;27.50;62.60;;;;;;4963752;28;81060;-85
2022/08/29 14:21:29;;;;;;;3.40;1.77;;;27.60;63.10;;;;;;4961123;28;81553;-84
2022/08/29 14:23:54;;;;;;;3.33;1.70;;;27.60;63.30;;;;;;4962394;28;82287;-84
2022/08/29 14:26:20;;;;;;;4.60;1.83;;;27.70;61.90;;;;;;4966904;28;82789;-83
2022/08/29 14:28:46;;;;;;;2.60;1.40;;;27.70;59.90;;;;;;4959740;28;81706;-82
2022/08/29 14:31:12;;;;;;;3.75;2.17;;;27.60;62.00;;;;;;4963499;28;81683;-85
2022/08/29 14:33:38;;;;;;;3.40;1.60;;;27.60;62.70;;;;;;4962367;28;81752;-85
2022/08/29 14:36:04;;;;;;;3.35;2.10;;;27.40;62.80;;;;;;4963814;28;81791;-84
2022/08/29 14:38:30;;;;;;;1.92;1.13;;;27.60;63.00;;;;;;4961441;28;81623;-83
2022/08/29 14:40:56;;;;;;;3.83;1.73;;;27.50;62.50;;;;;;4963558;28;81696;-85
2022/08/29 14:43:21;;;;;;;3.95;1.65;;;27.50;63.30;;;;;;4963468;28;81588;-85
2022/08/29 14:45:47;;;;;;;3.22;1.70;;;27.20;61.80;;;;;;4958794;28;81808;-83
2022/08/29 14:48:13;;;;;;;4.20;1.90;;;27.20;63.20;;;;;;4952819;28;81692;-86
2022/08/29 14:50:39;;;;;;;4.70;1.63;;;27.20;63.30;;;;;;4961703;28;82971;-85
2022/08/29 14:53:04;;;;;;;4.55;1.90;;;27.20;64.20;;;;;;4960847;28;83308;-85
2022/08/29 14:55:32;;;;;;;5.95;2.17;;;27.30;62.80;;;;;;4962247;28;81673;-82
2022/08/29 14:57:58;;;;;;;2.60;1.58;;;27.20;62.70;;;;;;4958735;28;82069;-86
2022/08/29 15:00:26;;;;;;;3.38;1.70;;;27.20;62.70;;;;;;4962469;28;81655;-82
2022/08/29 15:02:52;;;;;;;3.33;1.75;;;27.40;61.90;;;;;;4951339;28;81932;-84
2022/08/29 15:05:18;;;;;;;4.43;1.88;;;27.20;63.80;;;;;;4960839;28;81822;-83
2022/08/29 15:07:44;;;;;;;3.50;1.58;;;27.10;62.70;;;;;;4962146;28;81358;-81
2022/08/29 15:10:13;;;;;;;4.68;1.90;;;27.10;61.70;;;;;;4962285;28;82139;-82
2022/08/29 15:12:39;;;;;;;3.28;1.65;;;27.20;61.10;;;;;;4960603;28;81963;-83
2022/08/29 15:15:06;;;;;;;3.85;2.35;;;27.20;62.00;;;;;;4961475;28;82724;-83
2022/08/29 15:17:31;;;;;;;6.20;1.77;;;27.20;62.50;;;;;;4963331;28;82096;-84
2022/08/29 15:19:57;;;;;;;3.97;2.40;;;27.20;62.80;;;;;;4959462;28;81909;-83
2022/08/29 15:22:23;;;;;;;4.70;1.73;;;27.20;62.00;;;;;;4954358;28;83324;-84
2022/08/29 15:24:50;;;;;;;4.15;2.05;;;27.10;62.20;;;;;;4963051;28;81817;-82
2022/08/29 15:27:17;;;;;;;4.50;1.67;;;27.20;62.00;;;;;;4962958;28;81876;-84
2022/08/29 15:29:43;;;;;;;5.18;1.60;;;27.20;62.90;;;;;;4955502;28;81549;-83
2022/08/29 15:32:11;;;;;;;3.17;1.65;;;27.20;61.80;;;;;;4961239;28;83002;-82
2022/08/29 15:34:38;;;;;;;3.72;1.40;;;27.20;63.50;;;;;;4972329;28;81793;-85
2022/08/29 15:37:04;;;;;;;4.40;1.75;;;27.10;62.60;;;;;;4958169;28;84164;-85
2022/08/29 15:39:30;;;;;;;4.90;2.35;;;27.30;61.30;;;;;;4959708;28;82680;-81
2022/08/29 15:41:58;;;;;;;4.90;2.10;;;27.20;61.60;;;;;;4960311;28;82657;-85
2022/08/29 15:44:25;;;;;;;3.97;1.63;;;27.00;62.80;;;;;;4961684;28;81630;-82
2022/08/29 15:46:51;;;;;;;3.58;1.95;;;27.00;62.70;;;;;;4960213;28;81758;-81
2022/08/29 15:49:18;;;;;;;3.00;1.73;;;27.10;63.20;;;;;;4959344;28;82148;-83
2022/08/29 15:51:45;;;;;;;3.55;1.92;;;27.20;61.60;;;;;;4950801;28;82486;-84
2022/08/29 15:54:10;;;;;;;4.78;1.85;;;27.10;61.20;;;;;;4957686;28;81671;-82
2022/08/29 15:56:36;;;;;;;3.80;1.60;;;26.90;62.10;;;;;;4963902;28;81908;-81